Flight Track Log - Related Links

Times and Time Zones

All times are in EDT time to prevent confusion due to time zone crossing. See the C-GFSG flight status page for this flight to view local times or setup timezone preferences in your user account.

Time Position Orientation Groundspeed Altitude Reporting Facility
EDT Latitude Longitude Course Direction KTS MPH feet Rate Location/Type
Wed 04:50:51 PM 55.4500 -107.6667 105° East 180 207 10,800  Level Winnipeg Center
Wed 04:51:51 PM 55.4333 -107.5833 109° East 190 219 12,300 1,100 Climbing Winnipeg Center
Wed 04:52:51 PM 55.4333 -107.4833 90° East 210 242 13,000 350 Climbing Winnipeg Center
Wed 04:53:51 PM 55.4000 -107.3667 117° Southeast 250 288 13,000  Level Winnipeg Center
Wed 04:54:51 PM 55.4000 -107.2500 90° East 260 299 13,000  Level Winnipeg Center
Wed 04:55:51 PM 55.3667 -107.1167 114° Southeast 270 311 13,000  Level Winnipeg Center
Wed 04:56:00 PM 55.4069 -107.3279 105° East  Level FlightAware
Wed 04:56:51 PM 55.3667 -107.0000 90° East 270 311 13,000  Level Winnipeg Center
Wed 04:57:51 PM 55.3500 -106.8500 101° East 270 311 13,000  Level Winnipeg Center
Wed 04:58:51 PM 55.3333 -106.7167 102° East 270 311 13,000  Level Winnipeg Center
Wed 04:59:51 PM 55.3167 -106.6000 104° East 270 311 13,000  Level Winnipeg Center
Wed 05:00:51 PM 55.2833 -106.4833 117° Southeast 270 311 13,000 -650 Level Winnipeg Center
Wed 05:01:51 PM 55.2833 -106.3333 90° East 280 322 11,700 -1,350 Descending Winnipeg Center
Wed 05:02:51 PM 55.2667 -106.2000 102° East 290 334 10,300 -1,350 Descending Winnipeg Center
Wed 05:03:51 PM 55.2500 -106.0833 104° East 270 311 9,000 -1,250 Descending Winnipeg Center
Wed 05:04:51 PM 55.2333 -105.9667 104° East 250 288 7,800 -1,000 Descending Winnipeg Center
Wed 05:05:51 PM 55.2167 -105.8333 102° East 240 276 7,000 -967 Descending Winnipeg Center
Wed 05:07:00 PM 55.2018 -105.7212 103° East  Level FlightAware
Wed 05:07:51 PM 55.1833 -105.6333 103° East 210 242 4,900  Level Winnipeg Center
Wed 05:08:51 PM 55.1667 -105.5333 106° East 210 242 3,300 -950 Descending Winnipeg Center
Wed 05:09:51 PM 55.1833 -105.4500 71° East 180 207 3,000 -300 Descending Winnipeg Center
Wed 05:10:51 PM 55.1833 -105.3833 90° East 140 161 2,700 -350 Descending Winnipeg Center
Wed 05:11:51 PM 55.1833 -105.3333 90° East 130 150 2,300 -450 Descending Winnipeg Center
Wed 05:12:51 PM 55.1667 -105.2667 114° Southeast 120 138 1,800 -550 Descending Winnipeg Center
Wed 05:13:51 PM 55.1333 -105.3000 210° Southwest 100 115 1,200 -600 Descending Winnipeg Center

Login

Don't have an account? Register now (free) for customized features, flight alerts, and more!